sensor_id;sensor_type;location;lat;lon;timestamp;pressure;altitude;pressure_sealevel;temperature;humidity
27144;BME280;14672;50.250;8.312;2023-06-24T00:00:42;99699.72;;;18.69;62.23
27144;BME280;14672;50.250;8.312;2023-06-24T00:03:08;99706.88;;;18.59;62.92
27144;BME280;14672;50.250;8.312;2023-06-24T00:05:33;99707.88;;;18.70;61.89
27144;BME280;14672;50.250;8.312;2023-06-24T00:07:59;99705.06;;;18.61;62.59
27144;BME280;14672;50.250;8.312;2023-06-24T00:10:27;99700.63;;;18.51;62.49
27144;BME280;14672;50.250;8.312;2023-06-24T00:12:54;99701.28;;;18.55;62.31
27144;BME280;14672;50.250;8.312;2023-06-24T00:15:19;99701.94;;;18.50;62.61
27144;BME280;14672;50.250;8.312;2023-06-24T00:17:45;99706.78;;;18.44;62.19
27144;BME280;14672;50.250;8.312;2023-06-24T00:20:11;99710.59;;;18.50;62.32
27144;BME280;14672;50.250;8.312;2023-06-24T00:22:40;99710.41;;;18.54;62.29
27144;BME280;14672;50.250;8.312;2023-06-24T00:25:10;99716.56;;;18.23;62.72
27144;BME280;14672;50.250;8.312;2023-06-24T00:27:35;99720.94;;;18.33;63.04
27144;BME280;14672;50.250;8.312;2023-06-24T00:30:01;99709.75;;;18.35;62.55
27144;BME280;14672;50.250;8.312;2023-06-24T00:32:29;99712.63;;;18.35;62.66
27144;BME280;14672;50.250;8.312;2023-06-24T00:34:55;99717.88;;;18.37;62.47
27144;BME280;14672;50.250;8.312;2023-06-24T00:37:25;99716.63;;;18.14;62.84
27144;BME280;14672;50.250;8.312;2023-06-24T00:39:51;99710.19;;;18.19;63.05
27144;BME280;14672;50.250;8.312;2023-06-24T00:42:17;99713.44;;;18.12;62.86
27144;BME280;14672;50.250;8.312;2023-06-24T00:44:43;99711.25;;;18.07;62.99
27144;BME280;14672;50.250;8.312;2023-06-24T00:47:09;99718.41;;;18.11;62.37
27144;BME280;14672;50.250;8.312;2023-06-24T00:49:35;99710.81;;;17.99;62.67
27144;BME280;14672;50.250;8.312;2023-06-24T00:52:01;99705.84;;;18.00;62.93
27144;BME280;14672;50.250;8.312;2023-06-24T00:54:27;99708.06;;;18.05;62.84
27144;BME280;14672;50.250;8.312;2023-06-24T00:56:58;99708.38;;;17.83;63.18
27144;BME280;14672;50.250;8.312;2023-06-24T00:59:27;99708.19;;;17.87;63.92
27144;BME280;14672;50.250;8.312;2023-06-24T01:01:58;99713.25;;;17.92;62.95
27144;BME280;14672;50.250;8.312;2023-06-24T01:04:31;99718.22;;;17.91;63.18
27144;BME280;14672;50.250;8.312;2023-06-24T01:06:59;99708.00;;;17.90;63.35
27144;BME280;14672;50.250;8.312;2023-06-24T01:09:28;99713.69;;;17.75;63.38
27144;BME280;14672;50.250;8.312;2023-06-24T01:11:54;99722.16;;;17.70;63.95
27144;BME280;14672;50.250;8.312;2023-06-24T01:14:20;99719.91;;;17.74;63.58
27144;BME280;14672;50.250;8.312;2023-06-24T01:17:05;99713.69;;;17.75;63.62
27144;BME280;14672;50.250;8.312;2023-06-24T01:20:11;99715.00;;;17.65;63.34
27144;BME280;14672;50.250;8.312;2023-06-24T01:26:05;99711.66;;;17.67;63.67
27144;BME280;14672;50.250;8.312;2023-06-24T01:32:20;99720.13;;;17.61;64.28
27144;BME280;14672;50.250;8.312;2023-06-24T01:34:59;99721.25;;;17.55;63.93
27144;BME280;14672;50.250;8.312;2023-06-24T01:37:41;99712.47;;;17.67;64.12
27144;BME280;14672;50.250;8.312;2023-06-24T01:42:45;99726.22;;;17.54;63.91
27144;BME280;14672;50.250;8.312;2023-06-24T01:45:21;99723.34;;;17.63;63.93
27144;BME280;14672;50.250;8.312;2023-06-24T01:48:05;99726.34;;;17.60;63.32
27144;BME280;14672;50.250;8.312;2023-06-24T01:50:35;99720.13;;;17.52;64.25
27144;BME280;14672;50.250;8.312;2023-06-24T01:53:05;99722.94;;;17.37;64.24
27144;BME280;14672;50.250;8.312;2023-06-24T01:55:33;99714.94;;;17.42;64.38
27144;BME280;14672;50.250;8.312;2023-06-24T01:58:02;99720.09;;;17.28;64.57
27144;BME280;14672;50.250;8.312;2023-06-24T02:00:31;99724.34;;;17.42;64.57
27144;BME280;14672;50.250;8.312;2023-06-24T02:02:58;99724.03;;;17.40;64.47
27144;BME280;14672;50.250;8.312;2023-06-24T02:05:24;99727.88;;;17.37;64.60
27144;BME280;14672;50.250;8.312;2023-06-24T02:07:52;99716.38;;;17.37;64.33
27144;BME280;14672;50.250;8.312;2023-06-24T02:10:19;99718.78;;;17.38;64.64
27144;BME280;14672;50.250;8.312;2023-06-24T02:12:47;99710.63;;;17.37;64.50
27144;BME280;14672;50.250;8.312;2023-06-24T02:15:14;99708.09;;;17.39;63.99
27144;BME280;14672;50.250;8.312;2023-06-24T02:17:42;99706.78;;;17.40;64.12
27144;BME280;14672;50.250;8.312;2023-06-24T02:20:09;99712.28;;;17.20;65.09
27144;BME280;14672;50.250;8.312;2023-06-24T02:22:38;99700.47;;;17.27;65.18
27144;BME280;14672;50.250;8.312;2023-06-24T02:25:06;99716.31;;;17.13;64.97
27144;BME280;14672;50.250;8.312;2023-06-24T02:27:34;99714.34;;;17.28;64.21
27144;BME280;14672;50.250;8.312;2023-06-24T02:30:04;99717.75;;;17.09;64.53
27144;BME280;14672;50.250;8.312;2023-06-24T02:32:30;99719.63;;;17.21;64.03
27144;BME280;14672;50.250;8.312;2023-06-24T02:34:57;99711.88;;;17.03;64.66
27144;BME280;14672;50.250;8.312;2023-06-24T02:37:25;99706.09;;;17.12;64.37
27144;BME280;14672;50.250;8.312;2023-06-24T02:39:51;99716.19;;;17.08;64.62
27144;BME280;14672;50.250;8.312;2023-06-24T02:42:16;99708.69;;;17.01;65.64
27144;BME280;14672;50.250;8.312;2023-06-24T02:44:42;99710.28;;;17.02;65.02
27144;BME280;14672;50.250;8.312;2023-06-24T02:47:12;99704.72;;;16.99;64.69
27144;BME280;14672;50.250;8.312;2023-06-24T02:49:40;99709.47;;;17.11;64.52
27144;BME280;14672;50.250;8.312;2023-06-24T02:52:08;99716.81;;;17.12;64.06
27144;BME280;14672;50.250;8.312;2023-06-24T02:54:34;99707.25;;;17.06;64.11
27144;BME280;14672;50.250;8.312;2023-06-24T02:57:00;99709.84;;;16.95;64.69
27144;BME280;14672;50.250;8.312;2023-06-24T02:59:26;99703.91;;;16.98;64.90
27144;BME280;14672;50.250;8.312;2023-06-24T03:01:53;99709.03;;;16.85;64.91
27144;BME280;14672;50.250;8.312;2023-06-24T03:04:20;99707.44;;;16.84;65.15
27144;BME280;14672;50.250;8.312;2023-06-24T03:06:46;99713.34;;;16.80;65.31
27144;BME280;14672;50.250;8.312;2023-06-24T03:09:15;99715.59;;;16.76;65.21
27144;BME280;14672;50.250;8.312;2023-06-24T03:11:43;99714.31;;;16.86;64.81
27144;BME280;14672;50.250;8.312;2023-06-24T03:14:12;99715.94;;;16.78;65.18
27144;BME280;14672;50.250;8.312;2023-06-24T03:16:38;99719.25;;;16.95;64.38
27144;BME280;14672;50.250;8.312;2023-06-24T03:19:05;99724.34;;;16.91;63.98
27144;BME280;14672;50.250;8.312;2023-06-24T03:21:31;99724.19;;;16.95;64.20
27144;BME280;14672;50.250;8.312;2023-06-24T03:23:57;99708.69;;;16.92;63.74
27144;BME280;14672;50.250;8.312;2023-06-24T03:26:51;99706.34;;;16.90;64.47
27144;BME280;14672;50.250;8.312;2023-06-24T03:29:25;99721.50;;;16.82;64.73
27144;BME280;14672;50.250;8.312;2023-06-24T03:31:51;99718.81;;;16.78;65.10
27144;BME280;14672;50.250;8.312;2023-06-24T03:34:17;99722.00;;;16.71;64.92
27144;BME280;14672;50.250;8.312;2023-06-24T03:36:43;99720.56;;;16.67;64.93
27144;BME280;14672;50.250;8.312;2023-06-24T03:39:09;99725.34;;;16.79;64.43
27144;BME280;14672;50.250;8.312;2023-06-24T03:41:34;99728.66;;;16.86;65.13
27144;BME280;14672;50.250;8.312;2023-06-24T03:44:01;99725.16;;;16.82;65.63
27144;BME280;14672;50.250;8.312;2023-06-24T03:46:26;99729.94;;;16.76;65.69
27144;BME280;14672;50.250;8.312;2023-06-24T03:48:54;99725.81;;;16.77;65.48
27144;BME280;14672;50.250;8.312;2023-06-24T03:51:19;99722.81;;;16.72;66.35
27144;BME280;14672;50.250;8.312;2023-06-24T03:53:45;99726.78;;;16.74;65.84
27144;BME280;14672;50.250;8.312;2023-06-24T03:56:11;99725.16;;;16.92;66.21
27144;BME280;14672;50.250;8.312;2023-06-24T03:58:36;99733.44;;;16.80;65.73
27144;BME280;14672;50.250;8.312;2023-06-24T04:01:03;99731.53;;;16.77;65.73
27144;BME280;14672;50.250;8.312;2023-06-24T04:03:28;99735.69;;;16.85;66.27
27144;BME280;14672;50.250;8.312;2023-06-24T04:05:55;99740.78;;;17.00;65.64
27144;BME280;14672;50.250;8.312;2023-06-24T04:08:22;99742.66;;;17.03;65.56
27144;BME280;14672;50.250;8.312;2023-06-24T04:10:48;99742.53;;;16.88;65.81
27144;BME280;14672;50.250;8.312;2023-06-24T04:13:13;99741.41;;;16.95;65.85
27144;BME280;14672;50.250;8.312;2023-06-24T04:15:42;99744.63;;;16.87;66.77
27144;BME280;14672;50.250;8.312;2023-06-24T04:18:08;99747.44;;;16.97;66.55
27144;BME280;14672;50.250;8.312;2023-06-24T04:20:35;99738.09;;;16.78;67.01
27144;BME280;14672;50.250;8.312;2023-06-24T04:23:01;99741.75;;;16.87;67.44
27144;BME280;14672;50.250;8.312;2023-06-24T04:25:27;99755.25;;;16.96;66.52
27144;BME280;14672;50.250;8.312;2023-06-24T04:27:52;99746.97;;;16.98;66.64
27144;BME280;14672;50.250;8.312;2023-06-24T04:30:18;99744.41;;;17.00;66.92
27144;BME280;14672;50.250;8.312;2023-06-24T04:32:44;99748.88;;;17.10;66.63
27144;BME280;14672;50.250;8.312;2023-06-24T04:35:09;99738.81;;;17.15;66.96
27144;BME280;14672;50.250;8.312;2023-06-24T04:37:35;99740.88;;;17.23;67.03
27144;BME280;14672;50.250;8.312;2023-06-24T04:40:01;99741.00;;;17.29;67.34
27144;BME280;14672;50.250;8.312;2023-06-24T04:42:27;99738.75;;;17.33;67.55
27144;BME280;14672;50.250;8.312;2023-06-24T04:44:52;99736.50;;;17.37;67.46
27144;BME280;14672;50.250;8.312;2023-06-24T04:47:18;99744.75;;;17.44;67.28
27144;BME280;14672;50.250;8.312;2023-06-24T04:49:44;99743.03;;;17.37;67.96
27144;BME280;14672;50.250;8.312;2023-06-24T04:52:13;99740.25;;;17.52;67.38
27144;BME280;14672;50.250;8.312;2023-06-24T04:54:42;99748.41;;;17.63;67.26
27144;BME280;14672;50.250;8.312;2023-06-24T04:57:26;99753.66;;;17.64;67.76
27144;BME280;14672;50.250;8.312;2023-06-24T04:59:52;99749.09;;;17.81;67.32
27144;BME280;14672;50.250;8.312;2023-06-24T05:02:17;99745.19;;;17.94;66.78
27144;BME280;14672;50.250;8.312;2023-06-24T05:04:43;99754.44;;;17.98;67.30
27144;BME280;14672;50.250;8.312;2023-06-24T05:07:09;99751.81;;;18.09;67.13
27144;BME280;14672;50.250;8.312;2023-06-24T05:09:38;99758.69;;;18.11;67.27
27144;BME280;14672;50.250;8.312;2023-06-24T05:12:05;99755.72;;;18.20;67.96
27144;BME280;14672;50.250;8.312;2023-06-24T05:14:31;99748.31;;;18.28;67.70
27144;BME280;14672;50.250;8.312;2023-06-24T05:16:57;99756.88;;;18.38;67.20
27144;BME280;14672;50.250;8.312;2023-06-24T05:19:22;99757.78;;;18.44;67.19
27144;BME280;14672;50.250;8.312;2023-06-24T05:21:48;99755.50;;;18.48;67.39
27144;BME280;14672;50.250;8.312;2023-06-24T05:24:14;99765.81;;;18.63;67.61
27144;BME280;14672;50.250;8.312;2023-06-24T05:26:40;99761.84;;;18.75;67.21
27144;BME280;14672;50.250;8.312;2023-06-24T05:29:06;99755.44;;;18.81;67.58
27144;BME280;14672;50.250;8.312;2023-06-24T05:31:31;99758.50;;;18.92;67.48
27144;BME280;14672;50.250;8.312;2023-06-24T05:33:57;99769.47;;;19.02;67.33
27144;BME280;14672;50.250;8.312;2023-06-24T05:36:23;99773.22;;;19.23;66.57
27144;BME280;14672;50.250;8.312;2023-06-24T05:38:49;99765.19;;;19.27;66.79
27144;BME280;14672;50.250;8.312;2023-06-24T05:41:15;99763.69;;;19.32;67.18
27144;BME280;14672;50.250;8.312;2023-06-24T05:43:43;99765.03;;;19.45;67.03
27144;BME280;14672;50.250;8.312;2023-06-24T05:46:09;99762.09;;;19.60;66.98
27144;BME280;14672;50.250;8.312;2023-06-24T05:48:35;99759.72;;;19.73;67.11
27144;BME280;14672;50.250;8.312;2023-06-24T05:51:03;99777.19;;;19.84;66.75
27144;BME280;14672;50.250;8.312;2023-06-24T05:53:29;99763.66;;;19.90;66.86
27144;BME280;14672;50.250;8.312;2023-06-24T05:55:55;99766.16;;;20.03;66.76
27144;BME280;14672;50.250;8.312;2023-06-24T05:58:23;99763.16;;;20.12;66.30
27144;BME280;14672;50.250;8.312;2023-06-24T06:00:49;99756.56;;;20.26;66.11
27144;BME280;14672;50.250;8.312;2023-06-24T06:03:14;99749.38;;;20.36;66.14
27144;BME280;14672;50.250;8.312;2023-06-24T06:05:40;99748.22;;;20.48;65.56
27144;BME280;14672;50.250;8.312;2023-06-24T06:08:06;99752.75;;;20.55;65.26
27144;BME280;14672;50.250;8.312;2023-06-24T06:10:31;99750.19;;;20.62;64.75
27144;BME280;14672;50.250;8.312;2023-06-24T06:12:57;99748.03;;;20.78;64.55
27144;BME280;14672;50.250;8.312;2023-06-24T06:15:23;99758.63;;;20.86;63.86
27144;BME280;14672;50.250;8.312;2023-06-24T06:17:49;99747.72;;;20.96;63.10
27144;BME280;14672;50.250;8.312;2023-06-24T06:20:14;99749.34;;;21.02;63.73
27144;BME280;14672;50.250;8.312;2023-06-24T06:22:40;99745.28;;;21.15;63.84
27144;BME280;14672;50.250;8.312;2023-06-24T06:25:06;99738.84;;;21.25;63.11
27144;BME280;14672;50.250;8.312;2023-06-24T06:27:33;99747.88;;;21.38;62.29
27144;BME280;14672;50.250;8.312;2023-06-24T06:30:06;99745.38;;;21.51;62.36
27144;BME280;14672;50.250;8.312;2023-06-24T06:32:32;99740.69;;;21.60;62.44
27144;BME280;14672;50.250;8.312;2023-06-24T06:34:57;99742.63;;;21.68;61.79
27144;BME280;14672;50.250;8.312;2023-06-24T06:37:23;99732.72;;;21.80;61.38
27144;BME280;14672;50.250;8.312;2023-06-24T06:39:49;99739.31;;;21.86;62.03
27144;BME280;14672;50.250;8.312;2023-06-24T06:42:16;99734.41;;;21.92;61.73
27144;BME280;14672;50.250;8.312;2023-06-24T06:44:41;99731.06;;;22.05;60.97
27144;BME280;14672;50.250;8.312;2023-06-24T06:47:07;99735.59;;;22.17;60.17
27144;BME280;14672;50.250;8.312;2023-06-24T06:49:33;99731.16;;;22.27;59.28
27144;BME280;14672;50.250;8.312;2023-06-24T06:51:59;99730.66;;;22.34;59.35
27144;BME280;14672;50.250;8.312;2023-06-24T06:54:24;99735.50;;;22.48;59.08
27144;BME280;14672;50.250;8.312;2023-06-24T06:56:50;99728.16;;;22.59;58.00
27144;BME280;14672;50.250;8.312;2023-06-24T06:59:16;99724.00;;;22.71;58.55
27144;BME280;14672;50.250;8.312;2023-06-24T07:01:42;99731.41;;;22.83;57.79
27144;BME280;14672;50.250;8.312;2023-06-24T07:04:07;99726.69;;;22.91;57.94
27144;BME280;14672;50.250;8.312;2023-06-24T07:06:33;99731.72;;;23.02;56.27
27144;BME280;14672;50.250;8.312;2023-06-24T07:08:59;99726.19;;;23.09;55.59
27144;BME280;14672;50.250;8.312;2023-06-24T07:11:25;99729.38;;;23.22;55.32
27144;BME280;14672;50.250;8.312;2023-06-24T07:13:51;99728.34;;;23.36;54.49
27144;BME280;14672;50.250;8.312;2023-06-24T07:16:18;99724.16;;;23.43;55.03
27144;BME280;14672;50.250;8.312;2023-06-24T07:18:44;99725.72;;;23.50;54.85
27144;BME280;14672;50.250;8.312;2023-06-24T07:21:10;99737.09;;;23.64;54.18
27144;BME280;14672;50.250;8.312;2023-06-24T07:23:35;99720.19;;;23.74;53.80
27144;BME280;14672;50.250;8.312;2023-06-24T07:26:01;99719.09;;;23.82;53.56
27144;BME280;14672;50.250;8.312;2023-06-24T07:28:27;99720.44;;;23.87;52.89
27144;BME280;14672;50.250;8.312;2023-06-24T07:30:52;99719.59;;;23.98;52.05
27144;BME280;14672;50.250;8.312;2023-06-24T07:33:19;99715.09;;;24.08;52.06
27144;BME280;14672;50.250;8.312;2023-06-24T07:35:44;99720.09;;;24.13;52.21
27144;BME280;14672;50.250;8.312;2023-06-24T07:38:10;99718.53;;;24.17;51.78
27144;BME280;14672;50.250;8.312;2023-06-24T07:40:36;99724.59;;;24.19;51.52
27144;BME280;14672;50.250;8.312;2023-06-24T07:43:05;99716.38;;;24.35;51.66
27144;BME280;14672;50.250;8.312;2023-06-24T07:45:30;99720.06;;;24.29;51.30
27144;BME280;14672;50.250;8.312;2023-06-24T07:47:56;99724.00;;;24.43;50.92
27144;BME280;14672;50.250;8.312;2023-06-24T07:50:23;99721.34;;;24.45;49.75
27144;BME280;14672;50.250;8.312;2023-06-24T07:52:49;99712.06;;;24.52;47.57
27144;BME280;14672;50.250;8.312;2023-06-24T07:55:15;99714.94;;;24.58;46.65
27144;BME280;14672;50.250;8.312;2023-06-24T07:57:45;99726.00;;;24.65;47.51
27144;BME280;14672;50.250;8.312;2023-06-24T08:00:13;99712.81;;;24.64;47.62
27144;BME280;14672;50.250;8.312;2023-06-24T08:02:39;99710.16;;;24.66;47.10
27144;BME280;14672;50.250;8.312;2023-06-24T08:05:08;99719.34;;;24.75;46.62
27144;BME280;14672;50.250;8.312;2023-06-24T08:07:35;99710.16;;;24.66;47.79
27144;BME280;14672;50.250;8.312;2023-06-24T08:10:01;99707.44;;;24.79;48.26
27144;BME280;14672;50.250;8.312;2023-06-24T08:12:27;99721.69;;;24.83;48.00
27144;BME280;14672;50.250;8.312;2023-06-24T08:14:53;99716.34;;;24.92;47.76
27144;BME280;14672;50.250;8.312;2023-06-24T08:17:19;99718.72;;;24.99;47.55
27144;BME280;14672;50.250;8.312;2023-06-24T08:19:45;99711.00;;;25.07;47.77
27144;BME280;14672;50.250;8.312;2023-06-24T08:22:10;99715.97;;;25.12;47.50
27144;BME280;14672;50.250;8.312;2023-06-24T08:24:36;99713.06;;;25.12;47.15
27144;BME280;14672;50.250;8.312;2023-06-24T08:27:02;99712.50;;;25.19;47.84
27144;BME280;14672;50.250;8.312;2023-06-24T08:29:28;99709.03;;;25.21;47.99
27144;BME280;14672;50.250;8.312;2023-06-24T08:31:54;99701.09;;;25.21;47.88
27144;BME280;14672;50.250;8.312;2023-06-24T08:34:19;99706.81;;;25.33;47.80
27144;BME280;14672;50.250;8.312;2023-06-24T08:36:45;99703.28;;;25.45;46.68
27144;BME280;14672;50.250;8.312;2023-06-24T08:39:11;99699.56;;;25.50;45.71
27144;BME280;14672;50.250;8.312;2023-06-24T08:41:37;99707.41;;;25.61;44.64
27144;BME280;14672;50.250;8.312;2023-06-24T08:44:03;99714.78;;;25.67;44.88
27144;BME280;14672;50.250;8.312;2023-06-24T08:46:29;99709.69;;;25.74;45.69
27144;BME280;14672;50.250;8.312;2023-06-24T08:49:52;99700.09;;;25.79;46.23
27144;BME280;14672;50.250;8.312;2023-06-24T08:54:55;99700.91;;;25.79;44.16
27144;BME280;14672;50.250;8.312;2023-06-24T08:57:24;99702.09;;;25.89;43.85
27144;BME280;14672;50.250;8.312;2023-06-24T08:59:50;99696.28;;;25.89;43.78
27144;BME280;14672;50.250;8.312;2023-06-24T09:02:15;99700.53;;;25.88;44.07
27144;BME280;14672;50.250;8.312;2023-06-24T09:04:44;99700.97;;;25.98;43.75
27144;BME280;14672;50.250;8.312;2023-06-24T09:07:10;99702.38;;;25.91;42.53
27144;BME280;14672;50.250;8.312;2023-06-24T09:09:44;99701.13;;;25.81;42.35
27144;BME280;14672;50.250;8.312;2023-06-24T09:12:14;99695.44;;;25.94;41.95
27144;BME280;14672;50.250;8.312;2023-06-24T09:14:40;99699.63;;;25.99;42.17
27144;BME280;14672;50.250;8.312;2023-06-24T09:17:07;99692.19;;;26.03;41.35
27144;BME280;14672;50.250;8.312;2023-06-24T09:19:37;99684.41;;;26.11;42.07
27144;BME280;14672;50.250;8.312;2023-06-24T09:22:09;99673.19;;;26.21;41.39
27144;BME280;14672;50.250;8.312;2023-06-24T09:24:42;99666.25;;;26.24;40.22
27144;BME280;14672;50.250;8.312;2023-06-24T09:27:08;99679.44;;;26.31;42.26
27144;BME280;14672;50.250;8.312;2023-06-24T09:29:37;99664.25;;;26.38;41.76
27144;BME280;14672;50.250;8.312;2023-06-24T09:32:06;99671.19;;;26.35;42.47
27144;BME280;14672;50.250;8.312;2023-06-24T09:34:33;99668.50;;;26.37;42.70
27144;BME280;14672;50.250;8.312;2023-06-24T09:37:00;99663.38;;;26.43;41.39
27144;BME280;14672;50.250;8.312;2023-06-24T09:39:27;99667.72;;;26.55;40.37
27144;BME280;14672;50.250;8.312;2023-06-24T09:42:01;99662.38;;;26.59;41.67
27144;BME280;14672;50.250;8.312;2023-06-24T09:44:28;99661.00;;;26.41;41.85
27144;BME280;14672;50.250;8.312;2023-06-24T09:46:55;99660.63;;;26.69;42.77
27144;BME280;14672;50.250;8.312;2023-06-24T09:49:23;99649.06;;;26.82;42.58
27144;BME280;14672;50.250;8.312;2023-06-24T09:51:54;99641.88;;;26.83;42.39
27144;BME280;14672;50.250;8.312;2023-06-24T09:54:21;99646.63;;;26.86;41.94
27144;BME280;14672;50.250;8.312;2023-06-24T09:56:50;99646.44;;;26.97;42.78
27144;BME280;14672;50.250;8.312;2023-06-24T09:59:19;99643.59;;;27.11;43.96
27144;BME280;14672;50.250;8.312;2023-06-24T10:01:47;99640.91;;;27.13;43.46
27144;BME280;14672;50.250;8.312;2023-06-24T10:04:17;99633.94;;;27.16;43.12
27144;BME280;14672;50.250;8.312;2023-06-24T10:06:44;99637.25;;;27.25;43.28
27144;BME280;14672;50.250;8.312;2023-06-24T10:09:10;99640.50;;;27.22;42.65
27144;BME280;14672;50.250;8.312;2023-06-24T10:11:39;99628.56;;;27.20;40.66
27144;BME280;14672;50.250;8.312;2023-06-24T10:14:05;99629.97;;;27.32;39.91
27144;BME280;14672;50.250;8.312;2023-06-24T10:16:32;99622.34;;;27.29;40.44
27144;BME280;14672;50.250;8.312;2023-06-24T10:19:02;99629.88;;;27.37;40.67
27144;BME280;14672;50.250;8.312;2023-06-24T10:21:54;99621.25;;;27.45;40.86
27144;BME280;14672;50.250;8.312;2023-06-24T10:24:33;99612.88;;;27.54;41.36
27144;BME280;14672;50.250;8.312;2023-06-24T10:27:03;99613.97;;;27.51;41.68
27144;BME280;14672;50.250;8.312;2023-06-24T10:29:37;99607.63;;;27.66;41.39
27144;BME280;14672;50.250;8.312;2023-06-24T10:32:07;99610.88;;;27.76;41.59
27144;BME280;14672;50.250;8.312;2023-06-24T10:34:45;99612.09;;;27.67;40.30
27144;BME280;14672;50.250;8.312;2023-06-24T10:39:54;99618.06;;;27.88;40.32
27144;BME280;14672;50.250;8.312;2023-06-24T10:42:39;99603.13;;;28.05;39.36
27144;BME280;14672;50.250;8.312;2023-06-24T10:50:19;99594.50;;;28.12;39.99
27144;BME280;14672;50.250;8.312;2023-06-24T10:52:48;99593.50;;;28.10;39.70
27144;BME280;14672;50.250;8.312;2023-06-24T10:55:18;99594.28;;;28.10;39.56
27144;BME280;14672;50.250;8.312;2023-06-24T10:57:45;99593.94;;;28.14;39.56
27144;BME280;14672;50.250;8.312;2023-06-24T11:00:13;99582.13;;;28.06;39.41
27144;BME280;14672;50.250;8.312;2023-06-24T11:02:39;99587.41;;;28.21;39.88
27144;BME280;14672;50.250;8.312;2023-06-24T11:05:06;99585.47;;;28.23;39.73
27144;BME280;14672;50.250;8.312;2023-06-24T11:07:39;99581.66;;;28.28;39.94
27144;BME280;14672;50.250;8.312;2023-06-24T11:10:15;99581.75;;;28.36;40.19
27144;BME280;14672;50.250;8.312;2023-06-24T11:12:42;99576.94;;;28.38;38.63
27144;BME280;14672;50.250;8.312;2023-06-24T11:15:11;99580.38;;;28.50;39.58
27144;BME280;14672;50.250;8.312;2023-06-24T11:17:40;99561.44;;;28.64;40.17
27144;BME280;14672;50.250;8.312;2023-06-24T11:20:12;99557.38;;;28.67;40.42
27144;BME280;14672;50.250;8.312;2023-06-24T11:22:39;99567.38;;;28.72;39.04
27144;BME280;14672;50.250;8.312;2023-06-24T11:25:12;99557.16;;;28.65;38.88
27144;BME280;14672;50.250;8.312;2023-06-24T11:27:39;99566.75;;;28.53;38.15
27144;BME280;14672;50.250;8.312;2023-06-24T11:30:06;99567.13;;;28.49;37.35
27144;BME280;14672;50.250;8.312;2023-06-24T11:32:43;99556.63;;;28.54;36.35
27144;BME280;14672;50.250;8.312;2023-06-24T11:35:11;99556.84;;;28.69;36.44
27144;BME280;14672;50.250;8.312;2023-06-24T11:37:46;99554.22;;;28.78;35.79
27144;BME280;14672;50.250;8.312;2023-06-24T11:40:13;99542.66;;;28.93;35.68
27144;BME280;14672;50.250;8.312;2023-06-24T11:42:42;99549.16;;;29.00;36.18
27144;BME280;14672;50.250;8.312;2023-06-24T11:45:12;99552.63;;;29.19;36.82
27144;BME280;14672;50.250;8.312;2023-06-24T11:47:39;99544.50;;;29.25;37.19
27144;BME280;14672;50.250;8.312;2023-06-24T11:50:08;99540.56;;;29.43;37.53
27144;BME280;14672;50.250;8.312;2023-06-24T11:55:23;99530.00;;;29.68;36.90
27144;BME280;14672;50.250;8.312;2023-06-24T12:00:37;99532.69;;;29.87;36.53
27144;BME280;14672;50.250;8.312;2023-06-24T12:03:08;99531.41;;;30.03;35.43
27144;BME280;14672;50.250;8.312;2023-06-24T12:05:35;99521.66;;;30.08;35.65
27144;BME280;14672;50.250;8.312;2023-06-24T12:08:03;99513.91;;;30.26;36.16
27144;BME280;14672;50.250;8.312;2023-06-24T12:10:31;99523.41;;;30.47;36.29
27144;BME280;14672;50.250;8.312;2023-06-24T12:13:03;99515.63;;;30.65;36.08
27144;BME280;14672;50.250;8.312;2023-06-24T12:15:31;99511.72;;;30.77;35.51
27144;BME280;14672;50.250;8.312;2023-06-24T12:17:57;99505.69;;;30.91;35.33
27144;BME280;14672;50.250;8.312;2023-06-24T12:20:26;99501.22;;;30.97;35.29
27144;BME280;14672;50.250;8.312;2023-06-24T12:22:52;99502.56;;;30.96;34.70
27144;BME280;14672;50.250;8.312;2023-06-24T12:25:18;99509.66;;;31.01;33.39
27144;BME280;14672;50.250;8.312;2023-06-24T12:27:45;99497.69;;;30.99;34.02
27144;BME280;14672;50.250;8.312;2023-06-24T12:30:11;99492.59;;;31.30;34.54
27144;BME280;14672;50.250;8.312;2023-06-24T12:32:38;99488.72;;;31.04;32.77
27144;BME280;14672;50.250;8.312;2023-06-24T12:35:05;99494.97;;;31.01;33.18
27144;BME280;14672;50.250;8.312;2023-06-24T12:37:32;99492.81;;;31.16;34.64
27144;BME280;14672;50.250;8.312;2023-06-24T12:40:08;99486.53;;;31.35;34.08
27144;BME280;14672;50.250;8.312;2023-06-24T12:42:34;99482.81;;;31.35;33.87
27144;BME280;14672;50.250;8.312;2023-06-24T12:45:00;99481.81;;;31.47;33.48
27144;BME280;14672;50.250;8.312;2023-06-24T12:47:26;99483.53;;;31.73;33.02
27144;BME280;14672;50.250;8.312;2023-06-24T12:49:52;99473.97;;;31.57;32.46
27144;BME280;14672;50.250;8.312;2023-06-24T12:52:19;99472.19;;;31.69;32.38
27144;BME280;14672;50.250;8.312;2023-06-24T12:54:44;99476.63;;;31.86;31.49
27144;BME280;14672;50.250;8.312;2023-06-24T12:57:10;99469.78;;;31.91;31.14
27144;BME280;14672;50.250;8.312;2023-06-24T12:59:36;99457.16;;;32.05;31.12
27144;BME280;14672;50.250;8.312;2023-06-24T13:02:02;99468.44;;;32.32;32.09
27144;BME280;14672;50.250;8.312;2023-06-24T13:04:28;99463.34;;;32.32;31.32
27144;BME280;14672;50.250;8.312;2023-06-24T13:06:54;99463.41;;;32.17;30.33
27144;BME280;14672;50.250;8.312;2023-06-24T13:09:20;99471.63;;;32.19;30.42
27144;BME280;14672;50.250;8.312;2023-06-24T13:11:48;99453.09;;;32.01;29.23
27144;BME280;14672;50.250;8.312;2023-06-24T13:14:15;99450.91;;;32.01;28.78
27144;BME280;14672;50.250;8.312;2023-06-24T13:16:41;99463.63;;;32.11;29.19
27144;BME280;14672;50.250;8.312;2023-06-24T13:19:06;99454.63;;;32.02;30.88
27144;BME280;14672;50.250;8.312;2023-06-24T13:21:32;99460.66;;;32.19;31.69
27144;BME280;14672;50.250;8.312;2023-06-24T13:23:58;99455.41;;;32.42;31.98
27144;BME280;14672;50.250;8.312;2023-06-24T13:26:23;99457.94;;;32.46;31.48
27144;BME280;14672;50.250;8.312;2023-06-24T13:28:50;99451.84;;;32.51;30.83